Detroit Metropolitan Wayne County Airport
KDTW : rendu visible

Aérodrome :











RETROUVEZ-NOUS SUR...

 
LOGIN :

S'inscrire | Disclaimer

   EN    FR    IT 

 









Légende :    VFR   VFR Marginal   IFR   IFR Intensif   IFR Très Intensif
Visi : 
Plafond : 
>= 8 km
>= 3000ft
5 à 8 km
1000 à 3000 ft
1500m à 5 km
500 à 1000 ft
800 à 1500m
200 à 500 ft
< 800m
< 200 ft
Symboles :   Orages  Brouillard  Fortes neiges  Fortes précipitations  Vent > 20 kt






- Altitude de l'aérodrome : 645 ft
- Code IATA : DTW


KDTW - Detroit Metropolitan Wayne County

DERNIER METAR :
  • 290853Z 13004KT 5SM BR OVC003 09/08 A2956 RMK AO2 RAE45 SLP012 P0006 60006 T00940083 56049

METARs EXPIRÉS :
  • 290846Z 13004KT 3SM BR OVC003 09/08 A2957 RMK AO2 TWR VIS 4 RAE45 P0006 T00890083
  • 290753Z 11005KT 1 1/2SM -RA BR OVC002 08/07 A2960 RMK AO2 TWR VIS 4 RAB48 SLP026 P0000 T00830072
  • 290732Z 12005KT 2SM BR OVC002 08/07 A2962 RMK AO2 TWR VIS 4 T00830072
  • 290653Z 11006KT 5SM BR OVC003 08/07 A2964 RMK AO2 SLP041 T00780067

TAF KDTW
Valide du 29 à 09h jusqu'au 30 à 12h UTC


290908Z 2909/3012 13007KT 5SM BR OVC003
TEMPO 2910/2912 3SM -SHRA BR OVC003
FM291200 19010KT 6SM BR OVC008
FM291400 22016G28KT P6SM SCT025 BKN040
FM291700 24022G34KT P6SM -SHRA BKN028 OVC045
FM300600 25018G26KT P6SM BKN040



MET'MAP, la Météo Aéronautique d'un coup d'oeil ! - Copyright ORBIFLY Décembre 2007 - Disclaimer

ORBIFLY MET'MAP TEAM :

Programmation & Développement : Alexandra Zaïnal
Sur une idée originale de : Baudouin d'Aumeries
Assistance à la programmation : Marc-Olivier Méhu
Soutien technique & logistique : Manuel Goepfert

Contact : metmap@orbifly.com




SOURCES & CREDITS :

   NOAA       Earth
Advisory